sensor_id;sensor_type;location;lat;lon;timestamp;P1;durP1;ratioP1;P2;durP2;ratioP2
20611;SDS011;10465;42.686;23.364;2023-06-04T00:01:21;5.60;;;3.33;;
20611;SDS011;10465;42.686;23.364;2023-06-04T00:03:46;5.40;;;3.53;;
20611;SDS011;10465;42.686;23.364;2023-06-04T00:06:12;4.43;;;3.30;;
20611;SDS011;10465;42.686;23.364;2023-06-04T00:08:37;4.05;;;3.10;;
20611;SDS011;10465;42.686;23.364;2023-06-04T00:11:03;3.92;;;3.17;;
20611;SDS011;10465;42.686;23.364;2023-06-04T00:13:28;4.45;;;3.10;;
20611;SDS011;10465;42.686;23.364;2023-06-04T00:15:54;3.88;;;3.03;;
20611;SDS011;10465;42.686;23.364;2023-06-04T00:18:20;3.47;;;3.10;;
20611;SDS011;10465;42.686;23.364;2023-06-04T00:20:45;4.60;;;2.83;;
20611;SDS011;10465;42.686;23.364;2023-06-04T00:23:10;5.03;;;3.30;;
20611;SDS011;10465;42.686;23.364;2023-06-04T00:25:38;4.05;;;3.03;;
20611;SDS011;10465;42.686;23.364;2023-06-04T00:28:03;5.25;;;3.08;;
20611;SDS011;10465;42.686;23.364;2023-06-04T00:30:29;4.00;;;3.22;;
20611;SDS011;10465;42.686;23.364;2023-06-04T00:32:54;4.82;;;3.08;;
20611;SDS011;10465;42.686;23.364;2023-06-04T00:35:20;3.40;;;2.90;;
20611;SDS011;10465;42.686;23.364;2023-06-04T00:37:45;3.30;;;2.95;;
20611;SDS011;10465;42.686;23.364;2023-06-04T00:40:11;5.72;;;3.63;;
20611;SDS011;10465;42.686;23.364;2023-06-04T00:42:37;3.85;;;3.05;;
20611;SDS011;10465;42.686;23.364;2023-06-04T00:45:02;4.30;;;3.13;;
20611;SDS011;10465;42.686;23.364;2023-06-04T00:47:28;4.43;;;2.92;;
20611;SDS011;10465;42.686;23.364;2023-06-04T00:49:56;4.20;;;3.15;;
20611;SDS011;10465;42.686;23.364;2023-06-04T00:52:23;4.30;;;3.53;;
20611;SDS011;10465;42.686;23.364;2023-06-04T00:54:49;3.92;;;3.28;;
20611;SDS011;10465;42.686;23.364;2023-06-04T00:57:15;4.15;;;3.13;;
20611;SDS011;10465;42.686;23.364;2023-06-04T00:59:41;5.07;;;2.92;;
20611;SDS011;10465;42.686;23.364;2023-06-04T01:02:20;5.10;;;3.35;;
20611;SDS011;10465;42.686;23.364;2023-06-04T01:04:55;3.88;;;2.83;;
20611;SDS011;10465;42.686;23.364;2023-06-04T01:07:33;7.95;;;3.00;;
20611;SDS011;10465;42.686;23.364;2023-06-04T01:10:00;4.20;;;3.08;;
20611;SDS011;10465;42.686;23.364;2023-06-04T01:12:26;5.03;;;3.83;;
20611;SDS011;10465;42.686;23.364;2023-06-04T01:14:51;6.22;;;3.40;;
20611;SDS011;10465;42.686;23.364;2023-06-04T01:22:44;5.05;;;3.03;;
20611;SDS011;10465;42.686;23.364;2023-06-04T01:25:31;3.90;;;2.90;;
20611;SDS011;10465;42.686;23.364;2023-06-04T01:27:59;3.08;;;2.75;;
20611;SDS011;10465;42.686;23.364;2023-06-04T01:30:29;4.15;;;3.10;;
20611;SDS011;10465;42.686;23.364;2023-06-04T01:32:59;3.00;;;2.60;;
20611;SDS011;10465;42.686;23.364;2023-06-04T01:35:26;3.83;;;2.83;;
20611;SDS011;10465;42.686;23.364;2023-06-04T01:37:52;3.03;;;2.67;;
20611;SDS011;10465;42.686;23.364;2023-06-04T01:40:18;2.88;;;2.58;;
20611;SDS011;10465;42.686;23.364;2023-06-04T01:42:43;4.13;;;2.63;;
20611;SDS011;10465;42.686;23.364;2023-06-04T01:45:09;4.55;;;3.08;;
20611;SDS011;10465;42.686;23.364;2023-06-04T01:47:35;3.80;;;3.10;;
20611;SDS011;10465;42.686;23.364;2023-06-04T01:50:02;3.92;;;2.80;;
20611;SDS011;10465;42.686;23.364;2023-06-04T01:52:28;2.88;;;2.58;;
20611;SDS011;10465;42.686;23.364;2023-06-04T01:54:53;4.05;;;2.70;;
20611;SDS011;10465;42.686;23.364;2023-06-04T01:57:20;2.70;;;2.50;;
20611;SDS011;10465;42.686;23.364;2023-06-04T01:59:48;3.75;;;2.80;;
20611;SDS011;10465;42.686;23.364;2023-06-04T02:02:14;4.00;;;2.70;;
20611;SDS011;10465;42.686;23.364;2023-06-04T02:04:40;3.13;;;2.63;;
20611;SDS011;10465;42.686;23.364;2023-06-04T02:07:10;2.88;;;2.58;;
20611;SDS011;10465;42.686;23.364;2023-06-04T02:09:42;3.75;;;3.00;;
20611;SDS011;10465;42.686;23.364;2023-06-04T02:12:08;4.13;;;2.78;;
20611;SDS011;10465;42.686;23.364;2023-06-04T02:14:34;3.55;;;3.00;;
20611;SDS011;10465;42.686;23.364;2023-06-04T02:16:59;4.75;;;2.92;;
20611;SDS011;10465;42.686;23.364;2023-06-04T02:19:24;3.05;;;2.75;;
20611;SDS011;10465;42.686;23.364;2023-06-04T02:21:51;3.67;;;2.67;;
20611;SDS011;10465;42.686;23.364;2023-06-04T02:24:17;4.57;;;2.72;;
20611;SDS011;10465;42.686;23.364;2023-06-04T02:26:42;5.35;;;2.70;;
20611;SDS011;10465;42.686;23.364;2023-06-04T02:29:08;3.83;;;2.88;;
20611;SDS011;10465;42.686;23.364;2023-06-04T02:31:33;4.22;;;3.45;;
20611;SDS011;10465;42.686;23.364;2023-06-04T02:33:59;2.45;;;2.13;;
20611;SDS011;10465;42.686;23.364;2023-06-04T02:36:25;4.70;;;2.72;;
20611;SDS011;10465;42.686;23.364;2023-06-04T02:38:50;3.55;;;2.72;;
20611;SDS011;10465;42.686;23.364;2023-06-04T02:41:16;3.53;;;2.90;;
20611;SDS011;10465;42.686;23.364;2023-06-04T02:43:41;5.22;;;2.90;;
20611;SDS011;10465;42.686;23.364;2023-06-04T02:46:07;2.97;;;2.40;;
20611;SDS011;10465;42.686;23.364;2023-06-04T02:48:32;3.45;;;2.88;;
20611;SDS011;10465;42.686;23.364;2023-06-04T02:50:58;4.22;;;3.10;;
20611;SDS011;10465;42.686;23.364;2023-06-04T02:53:23;6.25;;;2.50;;
20611;SDS011;10465;42.686;23.364;2023-06-04T02:55:49;3.67;;;3.00;;
20611;SDS011;10465;42.686;23.364;2023-06-04T02:58:17;3.42;;;3.00;;
20611;SDS011;10465;42.686;23.364;2023-06-04T03:00:42;3.83;;;2.78;;
20611;SDS011;10465;42.686;23.364;2023-06-04T03:03:07;3.35;;;2.88;;
20611;SDS011;10465;42.686;23.364;2023-06-04T03:05:33;3.60;;;2.67;;
20611;SDS011;10465;42.686;23.364;2023-06-04T03:08:00;4.22;;;2.72;;
20611;SDS011;10465;42.686;23.364;2023-06-04T03:10:27;5.10;;;2.72;;
20611;SDS011;10465;42.686;23.364;2023-06-04T03:12:53;6.43;;;2.72;;
20611;SDS011;10465;42.686;23.364;2023-06-04T03:15:18;3.35;;;2.83;;
20611;SDS011;10465;42.686;23.364;2023-06-04T03:17:44;3.67;;;3.10;;
20611;SDS011;10465;42.686;23.364;2023-06-04T03:20:09;3.50;;;2.92;;
20611;SDS011;10465;42.686;23.364;2023-06-04T03:22:35;3.97;;;2.90;;
20611;SDS011;10465;42.686;23.364;2023-06-04T03:25:01;3.40;;;3.10;;
20611;SDS011;10465;42.686;23.364;2023-06-04T03:27:28;2.92;;;2.60;;
20611;SDS011;10465;42.686;23.364;2023-06-04T03:29:55;4.80;;;2.75;;
20611;SDS011;10465;42.686;23.364;2023-06-04T03:32:20;2.65;;;2.45;;
20611;SDS011;10465;42.686;23.364;2023-06-04T03:34:46;3.40;;;2.80;;
20611;SDS011;10465;42.686;23.364;2023-06-04T03:37:11;2.67;;;2.47;;
20611;SDS011;10465;42.686;23.364;2023-06-04T03:39:37;3.65;;;3.00;;
20611;SDS011;10465;42.686;23.364;2023-06-04T03:42:02;3.00;;;2.70;;
20611;SDS011;10465;42.686;23.364;2023-06-04T03:44:28;3.85;;;3.03;;
20611;SDS011;10465;42.686;23.364;2023-06-04T03:46:54;3.90;;;3.25;;
20611;SDS011;10465;42.686;23.364;2023-06-04T03:49:19;3.40;;;3.08;;
20611;SDS011;10465;42.686;23.364;2023-06-04T03:51:45;4.68;;;2.83;;
20611;SDS011;10465;42.686;23.364;2023-06-04T03:54:10;3.65;;;2.80;;
20611;SDS011;10465;42.686;23.364;2023-06-04T03:56:36;4.13;;;3.13;;
20611;SDS011;10465;42.686;23.364;2023-06-04T03:59:02;4.00;;;3.03;;
20611;SDS011;10465;42.686;23.364;2023-06-04T04:01:27;3.58;;;2.90;;
20611;SDS011;10465;42.686;23.364;2023-06-04T04:03:53;3.55;;;3.20;;
20611;SDS011;10465;42.686;23.364;2023-06-04T04:06:19;3.40;;;3.10;;
20611;SDS011;10465;42.686;23.364;2023-06-04T04:08:45;4.28;;;2.90;;
20611;SDS011;10465;42.686;23.364;2023-06-04T04:11:11;4.03;;;3.20;;
20611;SDS011;10465;42.686;23.364;2023-06-04T04:13:38;5.10;;;3.17;;
20611;SDS011;10465;42.686;23.364;2023-06-04T04:16:03;4.40;;;3.10;;
20611;SDS011;10465;42.686;23.364;2023-06-04T04:18:32;4.55;;;3.35;;
20611;SDS011;10465;42.686;23.364;2023-06-04T04:20:58;3.88;;;3.50;;
20611;SDS011;10465;42.686;23.364;2023-06-04T04:23:24;7.20;;;3.92;;
20611;SDS011;10465;42.686;23.364;2023-06-04T04:25:50;3.95;;;3.40;;
20611;SDS011;10465;42.686;23.364;2023-06-04T04:28:16;4.53;;;2.92;;
20611;SDS011;10465;42.686;23.364;2023-06-04T04:30:42;6.13;;;3.63;;
20611;SDS011;10465;42.686;23.364;2023-06-04T04:33:09;3.30;;;3.00;;
20611;SDS011;10465;42.686;23.364;2023-06-04T04:35:35;5.10;;;3.28;;
20611;SDS011;10465;42.686;23.364;2023-06-04T04:38:01;4.85;;;3.45;;
20611;SDS011;10465;42.686;23.364;2023-06-04T04:40:29;4.13;;;3.58;;
20611;SDS011;10465;42.686;23.364;2023-06-04T04:42:55;3.53;;;3.22;;
20611;SDS011;10465;42.686;23.364;2023-06-04T04:45:20;4.45;;;3.38;;
20611;SDS011;10465;42.686;23.364;2023-06-04T04:47:46;6.50;;;3.50;;
20611;SDS011;10465;42.686;23.364;2023-06-04T04:50:12;6.43;;;3.78;;
20611;SDS011;10465;42.686;23.364;2023-06-04T04:52:38;3.88;;;3.47;;
20611;SDS011;10465;42.686;23.364;2023-06-04T04:55:03;5.30;;;4.05;;
20611;SDS011;10465;42.686;23.364;2023-06-04T04:57:29;6.50;;;3.45;;
20611;SDS011;10465;42.686;23.364;2023-06-04T04:59:55;4.65;;;4.15;;
20611;SDS011;10465;42.686;23.364;2023-06-04T05:02:20;4.80;;;3.55;;
20611;SDS011;10465;42.686;23.364;2023-06-04T05:04:46;6.45;;;4.15;;
20611;SDS011;10465;42.686;23.364;2023-06-04T05:07:11;5.20;;;3.67;;
20611;SDS011;10465;42.686;23.364;2023-06-04T05:09:37;4.25;;;3.85;;
20611;SDS011;10465;42.686;23.364;2023-06-04T05:12:02;6.25;;;4.40;;
20611;SDS011;10465;42.686;23.364;2023-06-04T05:14:28;5.70;;;4.00;;
20611;SDS011;10465;42.686;23.364;2023-06-04T05:16:54;4.78;;;4.25;;
20611;SDS011;10465;42.686;23.364;2023-06-04T05:19:21;4.45;;;4.05;;
20611;SDS011;10465;42.686;23.364;2023-06-04T05:21:47;5.47;;;4.47;;
20611;SDS011;10465;42.686;23.364;2023-06-04T05:24:13;7.43;;;5.10;;
20611;SDS011;10465;42.686;23.364;2023-06-04T05:26:39;9.35;;;5.35;;
20611;SDS011;10465;42.686;23.364;2023-06-04T05:29:05;6.28;;;4.65;;
20611;SDS011;10465;42.686;23.364;2023-06-04T05:31:31;6.03;;;5.28;;
20611;SDS011;10465;42.686;23.364;2023-06-04T05:34:00;7.55;;;4.75;;
20611;SDS011;10465;42.686;23.364;2023-06-04T05:36:27;7.80;;;5.18;;
20611;SDS011;10465;42.686;23.364;2023-06-04T05:38:53;6.15;;;4.78;;
20611;SDS011;10465;42.686;23.364;2023-06-04T05:41:22;7.40;;;4.63;;
20611;SDS011;10465;42.686;23.364;2023-06-04T05:43:51;6.50;;;4.40;;
20611;SDS011;10465;42.686;23.364;2023-06-04T05:46:16;5.40;;;4.20;;
20611;SDS011;10465;42.686;23.364;2023-06-04T05:48:42;4.95;;;4.45;;
20611;SDS011;10465;42.686;23.364;2023-06-04T05:51:07;5.35;;;4.70;;
20611;SDS011;10465;42.686;23.364;2023-06-04T05:53:33;5.25;;;4.65;;
20611;SDS011;10465;42.686;23.364;2023-06-04T05:55:59;9.30;;;5.00;;
20611;SDS011;10465;42.686;23.364;2023-06-04T05:58:24;10.00;;;4.57;;
20611;SDS011;10465;42.686;23.364;2023-06-04T06:00:50;6.60;;;4.82;;
20611;SDS011;10465;42.686;23.364;2023-06-04T06:03:16;9.13;;;5.60;;
20611;SDS011;10465;42.686;23.364;2023-06-04T06:05:42;5.63;;;5.00;;
20611;SDS011;10465;42.686;23.364;2023-06-04T06:08:08;6.93;;;4.95;;
20611;SDS011;10465;42.686;23.364;2023-06-04T06:10:34;7.15;;;4.97;;
20611;SDS011;10465;42.686;23.364;2023-06-04T06:12:59;10.15;;;5.53;;
20611;SDS011;10465;42.686;23.364;2023-06-04T06:15:27;13.98;;;5.47;;
20611;SDS011;10465;42.686;23.364;2023-06-04T06:17:53;7.53;;;5.00;;
20611;SDS011;10465;42.686;23.364;2023-06-04T06:20:19;16.63;;;5.88;;
20611;SDS011;10465;42.686;23.364;2023-06-04T06:22:47;11.40;;;5.70;;
20611;SDS011;10465;42.686;23.364;2023-06-04T06:25:12;6.07;;;4.55;;
20611;SDS011;10465;42.686;23.364;2023-06-04T06:27:39;5.97;;;5.15;;
20611;SDS011;10465;42.686;23.364;2023-06-04T06:30:06;6.15;;;5.07;;
20611;SDS011;10465;42.686;23.364;2023-06-04T06:32:32;8.43;;;5.32;;
20611;SDS011;10465;42.686;23.364;2023-06-04T06:34:57;6.05;;;5.00;;
20611;SDS011;10465;42.686;23.364;2023-06-04T06:37:23;7.38;;;5.60;;
20611;SDS011;10465;42.686;23.364;2023-06-04T06:39:48;5.63;;;4.95;;
20611;SDS011;10465;42.686;23.364;2023-06-04T06:42:14;7.10;;;5.20;;
20611;SDS011;10465;42.686;23.364;2023-06-04T06:44:42;6.65;;;5.15;;
20611;SDS011;10465;42.686;23.364;2023-06-04T06:47:09;7.70;;;6.38;;
20611;SDS011;10465;42.686;23.364;2023-06-04T06:49:35;11.05;;;6.22;;
20611;SDS011;10465;42.686;23.364;2023-06-04T06:52:00;10.57;;;6.15;;
20611;SDS011;10465;42.686;23.364;2023-06-04T06:54:26;7.55;;;6.20;;
20611;SDS011;10465;42.686;23.364;2023-06-04T06:56:52;10.02;;;6.82;;
20611;SDS011;10465;42.686;23.364;2023-06-04T06:59:17;9.50;;;7.50;;
20611;SDS011;10465;42.686;23.364;2023-06-04T07:01:43;8.80;;;6.40;;
20611;SDS011;10465;42.686;23.364;2023-06-04T07:04:09;6.78;;;5.25;;
20611;SDS011;10465;42.686;23.364;2023-06-04T07:06:34;8.68;;;5.53;;
20611;SDS011;10465;42.686;23.364;2023-06-04T07:09:01;9.98;;;7.32;;
20611;SDS011;10465;42.686;23.364;2023-06-04T07:11:28;6.93;;;6.03;;
20611;SDS011;10465;42.686;23.364;2023-06-04T07:13:53;6.63;;;5.03;;
20611;SDS011;10465;42.686;23.364;2023-06-04T07:16:19;7.45;;;5.93;;
20611;SDS011;10465;42.686;23.364;2023-06-04T07:18:47;5.72;;;4.97;;
20611;SDS011;10465;42.686;23.364;2023-06-04T07:21:14;7.40;;;4.97;;
20611;SDS011;10465;42.686;23.364;2023-06-04T07:23:39;8.10;;;5.32;;
20611;SDS011;10465;42.686;23.364;2023-06-04T07:26:05;10.57;;;5.70;;
20611;SDS011;10465;42.686;23.364;2023-06-04T07:28:31;5.25;;;4.75;;
20611;SDS011;10465;42.686;23.364;2023-06-04T07:30:57;5.78;;;5.25;;
20611;SDS011;10465;42.686;23.364;2023-06-04T07:33:23;6.22;;;5.20;;
20611;SDS011;10465;42.686;23.364;2023-06-04T07:35:49;7.05;;;5.65;;
20611;SDS011;10465;42.686;23.364;2023-06-04T07:38:15;6.22;;;5.60;;
20611;SDS011;10465;42.686;23.364;2023-06-04T07:40:40;10.88;;;8.13;;
20611;SDS011;10465;42.686;23.364;2023-06-04T07:43:06;9.95;;;5.80;;
20611;SDS011;10465;42.686;23.364;2023-06-04T07:45:32;6.32;;;5.68;;
20611;SDS011;10465;42.686;23.364;2023-06-04T07:47:57;11.15;;;8.18;;
20611;SDS011;10465;42.686;23.364;2023-06-04T07:50:23;8.98;;;6.63;;
20611;SDS011;10465;42.686;23.364;2023-06-04T07:52:49;9.70;;;8.50;;
20611;SDS011;10465;42.686;23.364;2023-06-04T07:55:14;15.93;;;13.60;;
20611;SDS011;10465;42.686;23.364;2023-06-04T07:57:40;10.10;;;7.75;;
20611;SDS011;10465;42.686;23.364;2023-06-04T08:00:06;7.95;;;6.25;;
20611;SDS011;10465;42.686;23.364;2023-06-04T08:02:33;6.47;;;5.57;;
20611;SDS011;10465;42.686;23.364;2023-06-04T08:04:58;8.48;;;6.03;;
20611;SDS011;10465;42.686;23.364;2023-06-04T08:07:25;9.93;;;7.55;;
20611;SDS011;10465;42.686;23.364;2023-06-04T08:09:50;6.75;;;6.00;;
20611;SDS011;10465;42.686;23.364;2023-06-04T08:12:17;6.78;;;5.50;;
20611;SDS011;10465;42.686;23.364;2023-06-04T08:14:42;6.78;;;5.97;;
20611;SDS011;10465;42.686;23.364;2023-06-04T08:17:08;7.70;;;6.05;;
20611;SDS011;10465;42.686;23.364;2023-06-04T08:19:33;10.15;;;6.20;;
20611;SDS011;10465;42.686;23.364;2023-06-04T08:21:59;8.23;;;5.82;;
20611;SDS011;10465;42.686;23.364;2023-06-04T08:24:25;7.70;;;5.75;;
20611;SDS011;10465;42.686;23.364;2023-06-04T08:26:50;6.65;;;5.10;;
20611;SDS011;10465;42.686;23.364;2023-06-04T08:29:16;6.30;;;5.30;;
20611;SDS011;10465;42.686;23.364;2023-06-04T08:31:42;9.32;;;6.82;;
20611;SDS011;10465;42.686;23.364;2023-06-04T08:34:07;8.90;;;6.47;;
20611;SDS011;10465;42.686;23.364;2023-06-04T08:36:33;7.78;;;5.70;;
20611;SDS011;10465;42.686;23.364;2023-06-04T08:38:58;6.45;;;5.35;;
20611;SDS011;10465;42.686;23.364;2023-06-04T08:41:25;6.55;;;5.88;;
20611;SDS011;10465;42.686;23.364;2023-06-04T08:43:55;9.43;;;5.68;;
20611;SDS011;10465;42.686;23.364;2023-06-04T08:46:22;8.27;;;6.20;;
20611;SDS011;10465;42.686;23.364;2023-06-04T08:48:49;8.25;;;5.72;;
20611;SDS011;10465;42.686;23.364;2023-06-04T08:51:17;8.88;;;6.78;;
20611;SDS011;10465;42.686;23.364;2023-06-04T08:53:43;8.13;;;6.50;;
20611;SDS011;10465;42.686;23.364;2023-06-04T08:56:12;11.70;;;6.82;;
20611;SDS011;10465;42.686;23.364;2023-06-04T08:58:38;9.27;;;6.30;;
20611;SDS011;10465;42.686;23.364;2023-06-04T09:01:06;8.25;;;6.70;;
20611;SDS011;10465;42.686;23.364;2023-06-04T09:03:33;9.88;;;6.90;;
20611;SDS011;10465;42.686;23.364;2023-06-04T09:06:00;7.70;;;6.60;;
20611;SDS011;10465;42.686;23.364;2023-06-04T09:08:27;9.27;;;6.68;;
20611;SDS011;10465;42.686;23.364;2023-06-04T09:10:59;8.60;;;6.90;;
20611;SDS011;10465;42.686;23.364;2023-06-04T09:13:30;9.98;;;6.80;;
20611;SDS011;10465;42.686;23.364;2023-06-04T09:18:26;8.75;;;7.30;;
20611;SDS011;10465;42.686;23.364;2023-06-04T09:21:02;10.90;;;7.60;;
20611;SDS011;10465;42.686;23.364;2023-06-04T09:23:27;10.50;;;7.38;;
20611;SDS011;10465;42.686;23.364;2023-06-04T09:25:53;13.38;;;7.60;;
20611;SDS011;10465;42.686;23.364;2023-06-04T09:28:18;11.80;;;8.15;;
20611;SDS011;10465;42.686;23.364;2023-06-04T09:30:52;8.77;;;7.18;;
20611;SDS011;10465;42.686;23.364;2023-06-04T09:33:17;14.02;;;7.57;;
20611;SDS011;10465;42.686;23.364;2023-06-04T09:35:52;9.68;;;7.90;;
20611;SDS011;10465;42.686;23.364;2023-06-04T09:38:20;7.82;;;6.82;;
20611;SDS011;10465;42.686;23.364;2023-06-04T09:40:46;10.90;;;7.63;;
20611;SDS011;10465;42.686;23.364;2023-06-04T09:43:20;10.38;;;7.03;;
20611;SDS011;10465;42.686;23.364;2023-06-04T09:45:49;11.77;;;7.45;;
20611;SDS011;10465;42.686;23.364;2023-06-04T09:48:20;9.95;;;7.20;;
20611;SDS011;10465;42.686;23.364;2023-06-04T09:50:46;13.95;;;7.10;;
20611;SDS011;10465;42.686;23.364;2023-06-04T09:53:13;9.40;;;6.68;;
20611;SDS011;10465;42.686;23.364;2023-06-04T09:55:57;11.88;;;7.85;;
20611;SDS011;10465;42.686;23.364;2023-06-04T09:58:26;11.35;;;7.15;;
20611;SDS011;10465;42.686;23.364;2023-06-04T10:00:53;9.05;;;7.82;;
20611;SDS011;10465;42.686;23.364;2023-06-04T10:03:20;11.73;;;7.30;;
20611;SDS011;10465;42.686;23.364;2023-06-04T10:05:50;7.55;;;6.60;;
20611;SDS011;10465;42.686;23.364;2023-06-04T10:08:18;9.63;;;7.40;;
20611;SDS011;10465;42.686;23.364;2023-06-04T10:10:47;9.10;;;6.90;;
20611;SDS011;10465;42.686;23.364;2023-06-04T10:13:17;9.00;;;7.00;;
20611;SDS011;10465;42.686;23.364;2023-06-04T10:15:47;9.80;;;7.30;;
20611;SDS011;10465;42.686;23.364;2023-06-04T10:18:15;9.15;;;7.18;;
20611;SDS011;10465;42.686;23.364;2023-06-04T10:20:41;11.35;;;7.53;;
20611;SDS011;10465;42.686;23.364;2023-06-04T10:23:07;10.35;;;6.95;;
20611;SDS011;10465;42.686;23.364;2023-06-04T10:25:36;11.07;;;7.13;;
20611;SDS011;10465;42.686;23.364;2023-06-04T10:28:02;7.75;;;6.70;;
20611;SDS011;10465;42.686;23.364;2023-06-04T10:30:31;8.55;;;7.00;;
20611;SDS011;10465;42.686;23.364;2023-06-04T10:32:57;11.68;;;6.93;;
20611;SDS011;10465;42.686;23.364;2023-06-04T10:35:33;9.20;;;7.07;;
20611;SDS011;10465;42.686;23.364;2023-06-04T10:38:06;7.47;;;6.60;;
20611;SDS011;10465;42.686;23.364;2023-06-04T10:40:33;8.63;;;6.47;;
20611;SDS011;10465;42.686;23.364;2023-06-04T10:43:04;9.07;;;6.80;;
20611;SDS011;10465;42.686;23.364;2023-06-04T10:45:30;9.23;;;6.93;;
20611;SDS011;10465;42.686;23.364;2023-06-04T10:48:02;13.02;;;7.47;;
20611;SDS011;10465;42.686;23.364;2023-06-04T10:50:47;8.65;;;7.18;;
20611;SDS011;10465;42.686;23.364;2023-06-04T10:53:16;7.72;;;6.93;;
20611;SDS011;10465;42.686;23.364;2023-06-04T10:55:44;8.10;;;7.30;;
20611;SDS011;10465;42.686;23.364;2023-06-04T10:58:10;7.93;;;7.13;;
20611;SDS011;10465;42.686;23.364;2023-06-04T11:03:12;8.65;;;7.72;;
20611;SDS011;10465;42.686;23.364;2023-06-04T11:05:39;9.35;;;6.95;;
20611;SDS011;10465;42.686;23.364;2023-06-04T11:08:08;9.00;;;8.10;;
20611;SDS011;10465;42.686;23.364;2023-06-04T11:10:37;9.70;;;7.88;;
20611;SDS011;10465;42.686;23.364;2023-06-04T11:13:04;8.52;;;7.70;;
20611;SDS011;10465;42.686;23.364;2023-06-04T11:15:43;14.68;;;10.02;;
20611;SDS011;10465;42.686;23.364;2023-06-04T11:18:13;9.35;;;7.78;;
20611;SDS011;10465;42.686;23.364;2023-06-04T11:20:40;9.07;;;8.23;;
20611;SDS011;10465;42.686;23.364;2023-06-04T11:23:07;10.60;;;7.75;;
20611;SDS011;10465;42.686;23.364;2023-06-04T11:25:33;9.73;;;8.13;;
20611;SDS011;10465;42.686;23.364;2023-06-04T11:27:59;9.35;;;7.95;;
20611;SDS011;10465;42.686;23.364;2023-06-04T11:30:26;10.63;;;8.20;;
20611;SDS011;10465;42.686;23.364;2023-06-04T11:33:02;10.10;;;8.07;;
20611;SDS011;10465;42.686;23.364;2023-06-04T11:35:29;11.85;;;8.77;;
20611;SDS011;10465;42.686;23.364;2023-06-04T11:37:55;9.25;;;8.32;;
20611;SDS011;10465;42.686;23.364;2023-06-04T11:40:21;13.52;;;8.00;;
20611;SDS011;10465;42.686;23.364;2023-06-04T11:42:47;11.93;;;8.93;;
20611;SDS011;10465;42.686;23.364;2023-06-04T11:45:13;9.38;;;8.38;;
20611;SDS011;10465;42.686;23.364;2023-06-04T11:47:41;9.05;;;8.00;;
20611;SDS011;10465;42.686;23.364;2023-06-04T11:50:11;11.35;;;9.68;;
20611;SDS011;10465;42.686;23.364;2023-06-04T11:52:37;8.85;;;7.95;;
20611;SDS011;10465;42.686;23.364;2023-06-04T11:55:03;9.65;;;8.48;;
20611;SDS011;10465;42.686;23.364;2023-06-04T11:57:30;13.00;;;9.15;;
20611;SDS011;10465;42.686;23.364;2023-06-04T11:59:55;9.77;;;8.68;;
20611;SDS011;10465;42.686;23.364;2023-06-04T12:02:21;11.15;;;8.32;;
20611;SDS011;10465;42.686;23.364;2023-06-04T12:04:47;10.40;;;8.20;;
20611;SDS011;10465;42.686;23.364;2023-06-04T12:07:18;9.75;;;8.75;;
20611;SDS011;10465;42.686;23.364;2023-06-04T12:09:46;11.70;;;9.02;;
20611;SDS011;10465;42.686;23.364;2023-06-04T12:12:11;9.85;;;8.85;;
20611;SDS011;10465;42.686;23.364;2023-06-04T12:14:37;9.65;;;8.70;;
20611;SDS011;10465;42.686;23.364;2023-06-04T12:17:07;9.25;;;8.43;;
20611;SDS011;10465;42.686;23.364;2023-06-04T12:19:33;9.55;;;8.43;;
20611;SDS011;10465;42.686;23.364;2023-06-04T12:22:09;11.07;;;8.55;;
20611;SDS011;10465;42.686;23.364;2023-06-04T12:24:49;10.02;;;8.57;;
20611;SDS011;10465;42.686;23.364;2023-06-04T12:27:18;9.80;;;8.90;;
20611;SDS011;10465;42.686;23.364;2023-06-04T12:29:58;10.23;;;9.00;;
20611;SDS011;10465;42.686;23.364;2023-06-04T12:32:25;11.68;;;9.38;;
20611;SDS011;10465;42.686;23.364;2023-06-04T12:34:51;10.35;;;9.25;;
20611;SDS011;10465;42.686;23.364;2023-06-04T12:37:17;13.50;;;9.05;;
20611;SDS011;10465;42.686;23.364;2023-06-04T12:39:42;10.52;;;8.85;;
20611;SDS011;10465;42.686;23.364;2023-06-04T12:42:08;12.18;;;9.48;;
20611;SDS011;10465;42.686;23.364;2023-06-04T12:44:40;12.18;;;8.57;;
20611;SDS011;10465;42.686;23.364;2023-06-04T12:47:07;9.70;;;8.70;;
20611;SDS011;10465;42.686;23.364;2023-06-04T12:49:33;9.55;;;8.60;;
20611;SDS011;10465;42.686;23.364;2023-06-04T12:51:58;9.48;;;8.18;;
20611;SDS011;10465;42.686;23.364;2023-06-04T12:54:24;10.40;;;9.00;;
20611;SDS011;10465;42.686;23.364;2023-06-04T12:56:51;9.40;;;8.45;;
20611;SDS011;10465;42.686;23.364;2023-06-04T12:59:18;9.93;;;7.63;;
20611;SDS011;10465;42.686;23.364;2023-06-04T13:01:43;9.65;;;8.50;;
20611;SDS011;10465;42.686;23.364;2023-06-04T13:04:08;9.43;;;8.43;;
20611;SDS011;10465;42.686;23.364;2023-06-04T13:06:34;10.48;;;9.05;;
20611;SDS011;10465;42.686;23.364;2023-06-04T13:09:03;9.40;;;8.50;;
20611;SDS011;10465;42.686;23.364;2023-06-04T13:11:39;10.55;;;9.52;;
20611;SDS011;10465;42.686;23.364;2023-06-04T13:14:05;9.75;;;8.75;;
20611;SDS011;10465;42.686;23.364;2023-06-04T13:16:32;10.27;;;8.57;;
20611;SDS011;10465;42.686;23.364;2023-06-04T13:18:58;10.63;;;9.27;;
20611;SDS011;10465;42.686;23.364;2023-06-04T13:21:23;13.95;;;8.50;;
20611;SDS011;10465;42.686;23.364;2023-06-04T13:23:49;12.68;;;8.30;;
20611;SDS011;10465;42.686;23.364;2023-06-04T13:26:15;9.40;;;8.30;;
20611;SDS011;10465;42.686;23.364;2023-06-04T13:28:41;9.85;;;8.27;;
20611;SDS011;10465;42.686;23.364;2023-06-04T13:31:07;8.20;;;7.15;;
20611;SDS011;10465;42.686;23.364;2023-06-04T13:33:32;12.50;;;7.22;;
20611;SDS011;10465;42.686;23.364;2023-06-04T13:35:59;10.50;;;8.30;;
20611;SDS011;10465;42.686;23.364;2023-06-04T13:38:25;8.90;;;7.45;;
20611;SDS011;10465;42.686;23.364;2023-06-04T13:40:51;8.43;;;7.50;;
20611;SDS011;10465;42.686;23.364;2023-06-04T13:43:17;8.07;;;7.28;;
20611;SDS011;10465;42.686;23.364;2023-06-04T13:45:42;8.82;;;7.18;;
20611;SDS011;10465;42.686;23.364;2023-06-04T13:48:10;8.25;;;7.00;;
20611;SDS011;10465;42.686;23.364;2023-06-04T13:50:35;8.63;;;7.03;;
20611;SDS011;10465;42.686;23.364;2023-06-04T13:53:00;8.07;;;7.28;;
20611;SDS011;10465;42.686;23.364;2023-06-04T13:55:26;8.25;;;7.38;;
20611;SDS011;10465;42.686;23.364;2023-06-04T13:57:53;8.75;;;7.13;;
20611;SDS011;10465;42.686;23.364;2023-06-04T14:00:18;8.98;;;7.00;;
20611;SDS011;10465;42.686;23.364;2023-06-04T14:02:46;7.30;;;6.65;;
20611;SDS011;10465;42.686;23.364;2023-06-04T14:05:13;8.38;;;6.93;;
20611;SDS011;10465;42.686;23.364;2023-06-04T14:07:38;9.35;;;7.63;;
20611;SDS011;10465;42.686;23.364;2023-06-04T14:10:04;10.57;;;7.10;;
20611;SDS011;10465;42.686;23.364;2023-06-04T14:12:30;11.43;;;7.10;;
20611;SDS011;10465;42.686;23.364;2023-06-04T14:14:55;8.70;;;7.05;;
20611;SDS011;10465;42.686;23.364;2023-06-04T14:17:21;8.32;;;7.38;;
20611;SDS011;10465;42.686;23.364;2023-06-04T14:19:47;9.40;;;7.25;;
20611;SDS011;10465;42.686;23.364;2023-06-04T14:22:12;9.73;;;7.20;;
20611;SDS011;10465;42.686;23.364;2023-06-04T14:24:39;10.85;;;7.80;;
20611;SDS011;10465;42.686;23.364;2023-06-04T14:27:05;9.55;;;7.82;;
20611;SDS011;10465;42.686;23.364;2023-06-04T14:29:31;10.18;;;7.05;;
20611;SDS011;10465;42.686;23.364;2023-06-04T14:31:57;13.75;;;7.93;;
20611;SDS011;10465;42.686;23.364;2023-06-04T14:34:23;10.68;;;9.55;;
20611;SDS011;10465;42.686;23.364;2023-06-04T14:36:48;11.13;;;8.60;;
20611;SDS011;10465;42.686;23.364;2023-06-04T14:39:14;10.73;;;9.02;;